createdAt,value
2023-03-20T00:00:28.838Z,6.37
2023-03-20T00:01:32.335Z,6.33
2023-03-20T00:02:33.879Z,6.33
2023-03-20T00:03:35.458Z,6.37
2023-03-20T00:04:37.170Z,6.47
2023-03-20T00:05:40.018Z,6.55
2023-03-20T00:06:41.670Z,6.55
2023-03-20T00:07:43.858Z,6.57
2023-03-20T00:08:47.140Z,6.56
2023-03-20T00:09:49.471Z,6.63
2023-03-20T00:10:51.156Z,6.71
2023-03-20T00:11:55.593Z,6.82
2023-03-20T00:12:57.477Z,6.93
2023-03-20T00:14:11.055Z,7.04
2023-03-20T00:15:23.548Z,7.10
2023-03-20T00:16:30.147Z,7.11
2023-03-20T00:17:31.728Z,7.16
2023-03-20T00:18:33.371Z,7.16
2023-03-20T00:19:35.621Z,7.18
2023-03-20T00:20:37.350Z,7.23
2023-03-20T00:21:39.048Z,7.33
2023-03-20T00:22:40.598Z,7.38
2023-03-20T00:23:42.549Z,7.42
2023-03-20T00:24:44.148Z,7.45
2023-03-20T00:25:46.929Z,7.46
2023-03-20T00:26:50.439Z,7.47
2023-03-20T00:27:52.164Z,7.49
2023-03-20T00:28:53.880Z,7.51
2023-03-20T00:29:55.736Z,7.51
2023-03-20T00:30:57.371Z,7.53
2023-03-20T00:31:59.441Z,7.54
2023-03-20T00:33:01.008Z,7.54
2023-03-20T00:34:05.684Z,7.57
2023-03-20T00:35:26.240Z,7.56
2023-03-20T00:36:28.627Z,7.54
2023-03-20T00:37:30.216Z,7.48
2023-03-20T00:38:31.759Z,7.47
2023-03-20T00:39:34.428Z,7.33
2023-03-20T00:40:36.249Z,7.15
2023-03-20T00:42:16.180Z,7.03
2023-03-20T00:43:17.911Z,6.86
2023-03-20T00:44:32.196Z,6.70
2023-03-20T00:45:35.776Z,6.61
2023-03-20T00:46:39.303Z,6.44
2023-03-20T00:47:41.973Z,6.28
2023-03-20T00:48:44.237Z,6.13
2023-03-20T00:49:48.135Z,5.96
2023-03-20T00:50:49.711Z,5.99
2023-03-20T00:51:51.477Z,6.03
2023-03-20T00:52:53.299Z,5.99
2023-03-20T00:53:54.865Z,5.93
2023-03-20T00:54:56.445Z,5.88
2023-03-20T00:55:58.035Z,5.85
2023-03-20T00:57:38.760Z,5.88
2023-03-20T00:58:40.267Z,5.74
2023-03-20T00:59:52.053Z,5.69
2023-03-20T01:00:53.903Z,5.74
2023-03-20T01:01:56.550Z,5.84
2023-03-20T01:02:58.986Z,5.86
2023-03-20T01:04:01.047Z,5.79
2023-03-20T01:05:03.927Z,5.62
2023-03-20T01:06:05.709Z,5.54
2023-03-20T01:07:10.631Z,5.48
2023-03-20T01:08:18.083Z,5.50
2023-03-20T01:09:19.632Z,5.43
2023-03-20T01:10:21.450Z,5.34
2023-03-20T01:11:24.133Z,5.34
2023-03-20T01:12:25.778Z,5.33
2023-03-20T01:13:30.062Z,5.35
2023-03-20T01:14:32.020Z,5.41
2023-03-20T01:15:34.264Z,5.46
2023-03-20T01:16:36.492Z,5.46
2023-03-20T01:17:38.035Z,5.42
2023-03-20T01:18:39.628Z,5.41
2023-03-20T01:19:41.518Z,5.34
2023-03-20T01:20:43.611Z,5.32
2023-03-20T01:21:45.198Z,5.28
2023-03-20T01:22:46.813Z,5.13
2023-03-20T01:23:50.609Z,5.05
2023-03-20T01:24:52.160Z,5.06
2023-03-20T01:25:53.756Z,5.10
2023-03-20T01:26:55.317Z,5.16
2023-03-20T01:27:58.069Z,5.22
2023-03-20T01:29:00.037Z,5.34
2023-03-20T01:30:01.636Z,5.39
2023-03-20T01:31:03.195Z,5.31
2023-03-20T01:32:12.465Z,5.21
2023-03-20T01:33:19.596Z,5.23
2023-03-20T01:34:21.633Z,5.22
2023-03-20T01:35:26.352Z,5.25
2023-03-20T01:36:28.019Z,5.16
2023-03-20T01:37:29.592Z,5.13
2023-03-20T01:38:31.254Z,5.13
2023-03-20T01:39:36.042Z,5.08
2023-03-20T01:40:49.084Z,5.11
2023-03-20T01:41:52.837Z,5.13
2023-03-20T01:42:54.484Z,5.19
2023-03-20T01:43:56.045Z,5.26
2023-03-20T01:44:57.586Z,5.15
2023-03-20T01:46:11.377Z,5.02
2023-03-20T01:47:24.827Z,4.86
2023-03-20T01:48:36.077Z,4.73
2023-03-20T01:50:14.902Z,4.60
2023-03-20T01:51:29.717Z,4.43
2023-03-20T01:52:31.313Z,4.31
2023-03-20T01:53:33.058Z,4.25
2023-03-20T01:54:39.704Z,4.19
2023-03-20T01:55:43.672Z,4.04
2023-03-20T01:57:00.356Z,3.96
2023-03-20T01:58:06.284Z,3.83
2023-03-20T01:59:17.571Z,3.82
2023-03-20T02:00:19.651Z,3.82
2023-03-20T02:01:21.675Z,3.79
2023-03-20T02:02:27.100Z,3.90
2023-03-20T02:03:28.776Z,3.97
2023-03-20T02:04:36.863Z,4.06
2023-03-20T02:05:38.880Z,4.16
2023-03-20T02:06:42.352Z,4.22
2023-03-20T02:07:49.585Z,4.24
2023-03-20T02:08:53.172Z,4.37
2023-03-20T02:09:54.765Z,4.44
2023-03-20T02:10:58.352Z,4.46
2023-03-20T02:12:01.333Z,4.36
2023-03-20T02:13:04.028Z,4.41
2023-03-20T02:14:08.524Z,4.50
2023-03-20T02:15:11.963Z,4.62
2023-03-20T02:16:15.432Z,4.72
2023-03-20T02:17:17.124Z,4.85
2023-03-20T02:18:18.786Z,4.97
2023-03-20T02:19:48.092Z,5.08
2023-03-20T02:21:11.432Z,5.20
2023-03-20T02:22:24.956Z,5.28
2023-03-20T02:24:00.244Z,5.36
2023-03-20T02:25:23.291Z,5.28
2023-03-20T02:26:40.286Z,5.22
2023-03-20T02:28:17.251Z,5.20
2023-03-20T02:29:45.519Z,5.30
2023-03-20T02:31:28.478Z,5.41
2023-03-20T02:32:51.707Z,5.49
2023-03-20T02:34:15.021Z,5.55
2023-03-20T02:35:38.580Z,5.67
2023-03-20T02:36:52.163Z,5.75
2023-03-20T02:38:26.592Z,5.82
2023-03-20T02:39:54.478Z,5.93
2023-03-20T02:41:14.741Z,5.98
2023-03-20T02:42:30.900Z,5.96
2023-03-20T02:43:57.325Z,5.98
2023-03-20T02:45:17.845Z,5.99
2023-03-20T02:46:44.503Z,6.02
2023-03-20T02:47:51.299Z,6.01
2023-03-20T02:48:59.616Z,6.03
2023-03-20T02:50:17.898Z,6.05
2023-03-20T02:51:22.422Z,6.06
2023-03-20T02:52:38.976Z,6.08
2023-03-20T02:53:47.597Z,6.07
2023-03-20T02:54:56.180Z,6.05
2023-03-20T02:56:03.497Z,5.99
2023-03-20T02:57:23.754Z,5.96
2023-03-20T02:58:35.825Z,5.96
2023-03-20T02:59:52.598Z,5.93
2023-03-20T03:01:03.635Z,5.92
2023-03-20T03:02:12.543Z,5.87
2023-03-20T03:03:28.997Z,5.64
2023-03-20T03:04:36.230Z,5.55
2023-03-20T03:05:48.109Z,5.37
2023-03-20T03:06:55.882Z,5.08
2023-03-20T03:08:00.863Z,4.84
2023-03-20T03:09:05.701Z,4.63
2023-03-20T03:10:22.390Z,4.47
2023-03-20T03:11:24.404Z,4.35
2023-03-20T03:12:32.100Z,4.27
2023-03-20T03:13:38.620Z,4.15
2023-03-20T03:14:44.701Z,4.02
2023-03-20T03:15:51.206Z,3.95
2023-03-20T03:16:54.453Z,3.86
2023-03-20T03:17:59.617Z,3.83
2023-03-20T03:19:23.318Z,3.79
2023-03-20T03:20:30.803Z,3.75
2023-03-20T03:21:33.845Z,3.71
2023-03-20T03:22:36.457Z,3.61
2023-03-20T03:23:47.135Z,3.66
2023-03-20T03:24:51.022Z,3.63
2023-03-20T03:25:54.899Z,3.55
2023-03-20T03:26:59.528Z,3.48
2023-03-20T03:28:21.881Z,3.50
2023-03-20T03:29:26.495Z,3.50
2023-03-20T03:30:32.934Z,3.49
2023-03-20T03:31:35.842Z,3.51
2023-03-20T03:32:47.408Z,3.54
2023-03-20T03:33:53.545Z,3.62
2023-03-20T03:34:56.033Z,3.73
2023-03-20T03:36:16.280Z,3.90
2023-03-20T03:37:52.262Z,4.06
2023-03-20T03:39:11.606Z,4.16
2023-03-20T03:40:41.281Z,4.33
2023-03-20T03:41:54.031Z,4.47
2023-03-20T03:43:07.197Z,4.60
2023-03-20T03:44:31.677Z,4.73
2023-03-20T03:45:50.342Z,4.84
2023-03-20T03:46:57.650Z,4.89
2023-03-20T03:48:11.556Z,4.95
2023-03-20T03:49:20.564Z,4.99
2023-03-20T03:50:28.576Z,5.01
2023-03-20T03:51:33.167Z,5.07
2023-03-20T03:52:35.357Z,5.09
2023-03-20T03:53:42.839Z,5.08
2023-03-20T03:54:49.429Z,5.07
2023-03-20T03:55:55.122Z,5.03
2023-03-20T03:56:58.656Z,5.02
2023-03-20T03:58:06.171Z,5.03
2023-03-20T03:59:20.549Z,5.07
2023-03-20T04:00:25.065Z,5.16
2023-03-20T04:01:29.100Z,5.21
2023-03-20T04:02:31.074Z,5.24
2023-03-20T04:03:37.390Z,5.29
2023-03-20T04:04:43.541Z,5.33
2023-03-20T04:05:47.084Z,5.36
2023-03-20T04:06:48.933Z,5.38
2023-03-20T04:07:55.447Z,5.40
2023-03-20T04:08:57.027Z,5.42
2023-03-20T04:09:58.611Z,5.45
2023-03-20T04:11:00.325Z,5.50
2023-03-20T04:12:02.234Z,5.50
2023-03-20T04:13:03.883Z,5.48
2023-03-20T04:14:05.664Z,5.44
2023-03-20T04:15:07.849Z,5.44
2023-03-20T04:16:17.249Z,5.44
2023-03-20T04:17:18.838Z,5.47
2023-03-20T04:18:20.495Z,5.46
2023-03-20T04:19:22.044Z,5.36
2023-03-20T04:20:23.644Z,5.26
2023-03-20T04:21:25.377Z,4.88
2023-03-20T04:22:27.323Z,4.77
2023-03-20T04:23:28.970Z,4.72
2023-03-20T04:24:30.592Z,4.66
2023-03-20T04:25:32.173Z,4.57
2023-03-20T04:26:33.698Z,4.58
2023-03-20T04:27:36.033Z,4.59
2023-03-20T04:28:37.787Z,4.63
2023-03-20T04:29:39.456Z,4.67
2023-03-20T04:30:41.027Z,4.73
2023-03-20T04:31:42.613Z,4.79
2023-03-20T04:32:44.327Z,4.90
2023-03-20T04:33:45.942Z,4.99
2023-03-20T04:34:47.509Z,5.07
2023-03-20T04:35:49.057Z,5.11
2023-03-20T04:36:50.787Z,5.18
2023-03-20T04:37:52.329Z,5.24
2023-03-20T04:38:56.378Z,5.27
2023-03-20T04:39:59.086Z,5.32
2023-03-20T04:41:00.826Z,5.35
2023-03-20T04:42:03.028Z,5.38
2023-03-20T04:43:05.161Z,5.40
2023-03-20T04:44:06.708Z,5.43
2023-03-20T04:45:09.110Z,5.47
2023-03-20T04:46:10.926Z,5.51
2023-03-20T04:47:12.564Z,5.56
2023-03-20T04:48:14.480Z,5.59
2023-03-20T04:49:16.157Z,5.61
2023-03-20T04:50:17.767Z,5.64
2023-03-20T04:51:19.300Z,5.66
2023-03-20T04:52:20.946Z,5.56
2023-03-20T04:53:22.505Z,5.47
2023-03-20T04:54:25.373Z,5.37
2023-03-20T04:55:26.989Z,5.20
2023-03-20T04:56:28.509Z,5.07
2023-03-20T04:57:31.934Z,4.96
2023-03-20T04:58:35.910Z,4.87
2023-03-20T04:59:37.546Z,4.84
2023-03-20T05:00:39.239Z,4.80
2023-03-20T05:01:40.904Z,4.66
2023-03-20T05:02:43.155Z,4.61
2023-03-20T05:03:44.710Z,4.58
2023-03-20T05:04:46.575Z,4.59
2023-03-20T05:05:48.153Z,4.60
2023-03-20T05:06:49.845Z,4.61
2023-03-20T05:07:52.102Z,4.57
2023-03-20T05:08:53.663Z,4.58
2023-03-20T05:09:55.487Z,4.55
2023-03-20T05:10:57.152Z,4.51
2023-03-20T05:11:58.707Z,4.50
2023-03-20T05:13:00.477Z,4.37
2023-03-20T05:14:02.206Z,4.38
2023-03-20T05:15:03.962Z,4.40
2023-03-20T05:16:05.818Z,4.44
2023-03-20T05:17:07.438Z,4.46
2023-03-20T05:18:09.809Z,4.47
2023-03-20T05:19:11.378Z,4.50
2023-03-20T05:20:13.268Z,4.51
2023-03-20T05:21:15.568Z,4.54
2023-03-20T05:22:17.808Z,4.55
2023-03-20T05:23:19.380Z,4.56
2023-03-20T05:24:21.491Z,4.52
2023-03-20T05:25:23.078Z,4.54
2023-03-20T05:26:24.716Z,4.56
2023-03-20T05:27:26.316Z,4.53
2023-03-20T05:28:28.524Z,4.51
2023-03-20T05:29:30.045Z,4.47
2023-03-20T05:30:32.072Z,4.47
2023-03-20T05:31:33.680Z,4.49
2023-03-20T05:32:36.960Z,4.50
2023-03-20T05:33:38.824Z,4.44
2023-03-20T05:34:40.570Z,4.39
2023-03-20T05:35:42.482Z,4.40
2023-03-20T05:36:44.109Z,4.42
2023-03-20T05:37:45.736Z,4.47
2023-03-20T05:38:47.305Z,4.54
2023-03-20T05:39:48.858Z,4.63
2023-03-20T05:40:50.463Z,4.71
2023-03-20T05:41:52.059Z,4.77
2023-03-20T05:42:53.657Z,4.86
2023-03-20T05:43:55.585Z,4.91
2023-03-20T05:44:57.146Z,4.96
2023-03-20T05:45:58.918Z,5.06
2023-03-20T05:47:00.533Z,5.08
2023-03-20T05:48:02.131Z,5.09
2023-03-20T05:49:03.657Z,5.10
2023-03-20T05:50:05.585Z,5.15
2023-03-20T05:51:07.426Z,5.17
2023-03-20T05:52:08.967Z,5.19
2023-03-20T05:53:10.554Z,5.24
2023-03-20T05:54:12.168Z,5.25
2023-03-20T05:55:14.389Z,5.39
2023-03-20T05:56:16.090Z,5.39
2023-03-20T05:57:17.768Z,5.54
2023-03-20T05:58:19.398Z,5.88
2023-03-20T05:59:21.053Z,5.86
2023-03-20T06:00:23.338Z,5.86
2023-03-20T06:01:24.966Z,5.85
2023-03-20T06:02:27.186Z,5.90
2023-03-20T06:03:28.820Z,6.01
2023-03-20T06:04:30.816Z,6.07
2023-03-20T06:05:33.262Z,6.11
2023-03-20T06:06:38.045Z,6.09
2023-03-20T06:07:39.670Z,6.08
2023-03-20T06:08:41.340Z,6.12
2023-03-20T06:09:42.875Z,5.91
2023-03-20T06:10:44.485Z,5.64
2023-03-20T06:11:46.468Z,5.48
2023-03-20T06:12:48.006Z,5.39
2023-03-20T06:13:50.844Z,5.42
2023-03-20T06:14:52.335Z,5.54
2023-03-20T06:15:54.028Z,5.63
2023-03-20T06:16:57.232Z,5.65
2023-03-20T06:17:59.652Z,5.66
2023-03-20T06:19:01.230Z,5.72
2023-03-20T06:20:03.403Z,5.81
2023-03-20T06:21:06.158Z,5.94
2023-03-20T06:22:08.223Z,6.02
2023-03-20T06:23:09.794Z,5.95
2023-03-20T06:24:11.310Z,5.91
2023-03-20T06:25:13.638Z,5.90
2023-03-20T06:26:15.757Z,5.82
2023-03-20T06:27:17.449Z,5.90
2023-03-20T06:28:19.123Z,6.04
2023-03-20T06:29:20.807Z,6.07
2023-03-20T06:30:22.461Z,6.17
2023-03-20T06:31:24.627Z,6.26
2023-03-20T06:32:27.152Z,6.36
2023-03-20T06:33:28.986Z,6.50
2023-03-20T06:34:30.529Z,6.54
2023-03-20T06:35:32.677Z,6.65
2023-03-20T06:36:34.241Z,6.76
2023-03-20T06:37:36.561Z,6.85
2023-03-20T06:38:38.164Z,6.98
2023-03-20T06:39:39.831Z,7.11
2023-03-20T06:40:41.871Z,7.20
2023-03-20T06:41:43.566Z,7.34
2023-03-20T06:42:45.113Z,7.46
2023-03-20T06:43:46.814Z,7.53
2023-03-20T06:44:48.527Z,7.51
2023-03-20T06:45:50.132Z,7.60
2023-03-20T06:46:51.850Z,7.69
2023-03-20T06:47:53.616Z,7.84
2023-03-20T06:48:55.923Z,7.90
2023-03-20T06:49:57.466Z,8.01
2023-03-20T06:50:59.042Z,8.07
2023-03-20T06:52:00.659Z,8.18
2023-03-20T06:53:02.217Z,8.36
2023-03-20T06:54:03.802Z,8.51
2023-03-20T06:55:06.810Z,8.64
2023-03-20T06:56:09.145Z,8.77
2023-03-20T06:57:13.229Z,8.83
2023-03-20T06:58:16.748Z,8.85
2023-03-20T06:59:18.432Z,8.97
2023-03-20T07:00:21.625Z,9.11
2023-03-20T07:01:23.768Z,9.01
2023-03-20T07:02:25.917Z,8.98
2023-03-20T07:03:28.539Z,8.93
2023-03-20T07:04:30.181Z,8.97
2023-03-20T07:05:32.657Z,9.04
2023-03-20T07:06:34.874Z,9.12
2023-03-20T07:07:37.111Z,9.13
2023-03-20T07:08:39.034Z,9.05
2023-03-20T07:09:40.591Z,9.10
2023-03-20T07:10:42.278Z,9.07
2023-03-20T07:11:45.069Z,9.07
2023-03-20T07:12:46.808Z,9.13
2023-03-20T07:13:49.909Z,9.25
2023-03-20T07:14:51.660Z,9.37
2023-03-20T07:16:03.660Z,9.40
2023-03-20T07:17:06.403Z,9.39
2023-03-20T07:18:08.470Z,9.45
2023-03-20T07:19:10.750Z,9.50
2023-03-20T07:20:13.016Z,9.53
2023-03-20T07:21:20.341Z,9.60
2023-03-20T07:22:25.206Z,9.72
2023-03-20T07:23:26.796Z,9.81
2023-03-20T07:24:28.373Z,9.85
2023-03-20T07:25:41.964Z,9.87
2023-03-20T07:26:44.034Z,9.88
2023-03-20T07:27:50.612Z,9.98
2023-03-20T07:28:52.113Z,10.21
2023-03-20T07:29:53.647Z,10.30
2023-03-20T07:30:55.743Z,10.45
2023-03-20T07:31:57.308Z,10.56
2023-03-20T07:32:58.962Z,10.67
2023-03-20T07:34:00.788Z,10.80
2023-03-20T07:35:02.433Z,10.90
2023-03-20T07:36:04.505Z,10.97
2023-03-20T07:37:06.420Z,11.08
2023-03-20T07:38:08.014Z,11.22
2023-03-20T07:39:11.014Z,11.39
2023-03-20T07:40:12.944Z,11.52
2023-03-20T07:41:14.577Z,11.66
2023-03-20T07:42:16.585Z,11.81
2023-03-20T07:43:18.112Z,11.99
2023-03-20T07:44:19.985Z,12.07
2023-03-20T07:45:21.763Z,11.99
2023-03-20T07:46:23.386Z,12.13
2023-03-20T07:47:28.224Z,12.17
2023-03-20T07:48:30.148Z,12.18
2023-03-20T07:49:31.714Z,12.13
2023-03-20T07:50:33.552Z,12.17
2023-03-20T07:51:35.106Z,12.31
2023-03-20T07:52:36.913Z,12.26
2023-03-20T07:53:38.492Z,12.25
2023-03-20T07:54:40.526Z,12.37
2023-03-20T07:55:44.261Z,12.48
2023-03-20T07:56:45.906Z,12.50
2023-03-20T07:57:49.786Z,12.35
2023-03-20T07:58:51.313Z,12.34
2023-03-20T07:59:52.931Z,12.38
2023-03-20T08:00:57.235Z,12.36
2023-03-20T08:01:58.898Z,12.11
2023-03-20T08:03:00.855Z,12.19
2023-03-20T08:04:02.786Z,12.36
2023-03-20T08:05:04.854Z,12.53
2023-03-20T08:06:09.642Z,12.71
2023-03-20T08:07:11.684Z,12.67
2023-03-20T08:08:13.437Z,12.72
2023-03-20T08:09:15.938Z,12.82
2023-03-20T08:10:17.484Z,12.70
2023-03-20T08:11:19.883Z,12.72
2023-03-20T08:12:21.820Z,12.88
2023-03-20T08:13:23.350Z,13.08
2023-03-20T08:14:24.985Z,13.16
2023-03-20T08:15:26.593Z,13.22
2023-03-20T08:16:28.195Z,13.28
2023-03-20T08:17:29.798Z,13.38
2023-03-20T08:18:31.482Z,13.43
2023-03-20T08:19:33.072Z,13.36
2023-03-20T08:20:34.573Z,13.47
2023-03-20T08:21:36.142Z,13.60
2023-03-20T08:22:37.731Z,13.66
2023-03-20T08:23:39.247Z,13.64
2023-03-20T08:24:40.970Z,13.52
2023-03-20T08:25:47.369Z,13.52
2023-03-20T08:26:48.966Z,13.69
2023-03-20T08:27:50.783Z,13.74
2023-03-20T08:28:52.754Z,13.85
2023-03-20T08:29:54.384Z,14.00
2023-03-20T08:30:56.390Z,14.06
2023-03-20T08:31:57.996Z,14.10
2023-03-20T08:32:59.663Z,14.17
2023-03-20T08:34:01.554Z,14.28
2023-03-20T08:35:03.438Z,14.42
2023-03-20T08:36:05.535Z,14.45
2023-03-20T08:37:08.057Z,14.46
2023-03-20T08:38:13.264Z,14.62
2023-03-20T08:39:14.972Z,14.79
2023-03-20T08:40:16.962Z,14.70
2023-03-20T08:41:19.070Z,14.55
2023-03-20T08:42:21.038Z,14.63
2023-03-20T08:43:22.666Z,14.58
2023-03-20T08:44:24.462Z,14.38
2023-03-20T08:45:26.353Z,14.39
2023-03-20T08:46:27.951Z,14.44
2023-03-20T08:47:29.488Z,14.48
2023-03-20T08:48:31.450Z,14.56
2023-03-20T08:49:34.219Z,14.55
2023-03-20T08:50:35.861Z,14.50
2023-03-20T08:51:37.405Z,14.50
2023-03-20T08:52:43.861Z,14.58
2023-03-20T08:53:45.489Z,14.61
2023-03-20T08:54:47.225Z,14.54
2023-03-20T08:55:53.083Z,14.49
2023-03-20T08:56:54.851Z,14.54
2023-03-20T08:57:57.461Z,14.63
2023-03-20T08:58:59.074Z,14.75
2023-03-20T09:00:01.513Z,14.95
2023-03-20T09:01:05.474Z,14.96
2023-03-20T09:02:07.529Z,15.03
2023-03-20T09:03:14.874Z,14.90
2023-03-20T09:04:16.831Z,14.71
2023-03-20T09:05:18.484Z,14.82
2023-03-20T09:06:20.661Z,14.86
2023-03-20T09:07:22.672Z,14.98
2023-03-20T09:08:24.849Z,15.11
2023-03-20T09:09:29.554Z,15.19
2023-03-20T09:10:32.848Z,15.24
2023-03-20T09:11:34.913Z,15.35
2023-03-20T09:12:36.884Z,15.43
2023-03-20T09:13:38.511Z,15.53
2023-03-20T09:14:40.133Z,15.57
2023-03-20T09:15:41.798Z,15.60
2023-03-20T09:16:43.625Z,15.64
2023-03-20T09:17:45.402Z,15.54
2023-03-20T09:18:46.960Z,15.44
2023-03-20T09:19:48.669Z,15.29
2023-03-20T09:20:51.026Z,15.05
2023-03-20T09:21:52.560Z,15.10
2023-03-20T09:22:54.329Z,15.22
2023-03-20T09:23:56.039Z,15.18
2023-03-20T09:24:57.566Z,15.28
2023-03-20T09:25:59.180Z,15.50
2023-03-20T09:27:03.429Z,15.63
2023-03-20T09:28:05.376Z,15.75
2023-03-20T09:29:07.047Z,15.80
2023-03-20T09:30:10.456Z,15.75
2023-03-20T09:31:12.373Z,15.53
2023-03-20T09:32:15.533Z,15.50
2023-03-20T09:33:18.596Z,15.47
2023-03-20T09:34:20.229Z,15.42
2023-03-20T09:35:22.237Z,15.40
2023-03-20T09:36:23.820Z,15.26
2023-03-20T09:37:25.548Z,15.17
2023-03-20T09:38:27.154Z,15.26
2023-03-20T09:39:29.114Z,15.35
2023-03-20T09:40:49.767Z,15.15
2023-03-20T09:41:57.400Z,15.15
2023-03-20T09:43:25.232Z,15.30
2023-03-20T09:44:53.264Z,15.61
2023-03-20T09:46:32.154Z,15.81
2023-03-20T09:47:45.869Z,15.98
2023-03-20T09:49:19.843Z,16.18
2023-03-20T09:50:27.224Z,16.36
2023-03-20T09:51:43.897Z,16.50
2023-03-20T09:53:22.234Z,16.62
2023-03-20T09:54:54.054Z,16.56
2023-03-20T09:55:57.844Z,16.27
2023-03-20T09:57:01.411Z,16.16
2023-03-20T09:58:27.353Z,16.16
2023-03-20T09:59:32.657Z,16.20
2023-03-20T10:00:36.091Z,16.13
2023-03-20T10:01:52.141Z,16.17
2023-03-20T10:03:15.000Z,16.10
2023-03-20T10:04:16.799Z,16.12
2023-03-20T10:05:27.714Z,16.17
2023-03-20T10:06:29.625Z,16.13
2023-03-20T10:07:31.221Z,16.20
2023-03-20T10:08:38.819Z,16.24
2023-03-20T10:09:40.972Z,16.27
2023-03-20T10:11:00.732Z,16.26
2023-03-20T10:12:45.701Z,16.34
2023-03-20T10:14:02.723Z,16.46
2023-03-20T10:15:13.279Z,16.50
2023-03-20T10:16:24.022Z,16.31
2023-03-20T10:18:02.511Z,16.14
2023-03-20T10:19:16.204Z,16.32
2023-03-20T10:20:42.893Z,16.47
2023-03-20T10:21:49.557Z,16.55
2023-03-20T10:23:27.180Z,16.71
2023-03-20T10:24:36.286Z,16.65
2023-03-20T10:25:46.421Z,16.53
2023-03-20T10:26:52.346Z,16.58
2023-03-20T10:28:04.371Z,16.65
2023-03-20T10:29:16.950Z,16.75
2023-03-20T10:30:21.328Z,16.87
2023-03-20T10:31:58.519Z,16.92
2023-03-20T10:33:30.853Z,17.12
2023-03-20T10:35:19.138Z,17.19
2023-03-20T10:36:36.097Z,17.26
2023-03-20T10:38:01.927Z,17.20
2023-03-20T10:39:19.603Z,17.18
2023-03-20T10:40:27.186Z,17.17
2023-03-20T10:41:36.388Z,17.18
2023-03-20T10:42:44.001Z,17.28
2023-03-20T10:43:49.114Z,17.31
2023-03-20T10:44:58.583Z,17.37
2023-03-20T10:46:05.018Z,17.38
2023-03-20T10:47:11.791Z,17.40
2023-03-20T10:48:21.301Z,17.37
2023-03-20T10:49:41.280Z,17.49
2023-03-20T10:50:47.904Z,17.63
2023-03-20T10:51:54.029Z,17.60
2023-03-20T10:52:57.385Z,17.56
2023-03-20T10:54:03.983Z,17.64
2023-03-20T10:55:15.810Z,17.73
2023-03-20T10:56:32.433Z,17.85
2023-03-20T10:57:38.420Z,17.97
2023-03-20T10:58:42.044Z,18.08
2023-03-20T10:59:49.004Z,18.16
2023-03-20T11:00:51.711Z,18.20
2023-03-20T11:01:53.653Z,18.15
2023-03-20T11:02:56.086Z,18.15
2023-03-20T11:03:57.766Z,18.22
2023-03-20T11:05:02.664Z,18.33
2023-03-20T11:06:13.495Z,18.48
2023-03-20T11:07:26.323Z,18.61
2023-03-20T11:08:35.963Z,18.60
2023-03-20T11:09:38.288Z,18.61
2023-03-20T11:10:42.542Z,18.57
2023-03-20T11:11:46.959Z,18.66
2023-03-20T11:12:50.042Z,18.70
2023-03-20T11:13:52.060Z,18.71
2023-03-20T11:15:00.937Z,18.74
2023-03-20T11:16:26.255Z,18.80
2023-03-20T11:17:31.008Z,18.55
2023-03-20T11:18:32.587Z,18.42
2023-03-20T11:19:36.957Z,18.39
2023-03-20T11:20:47.795Z,18.38
2023-03-20T11:21:52.534Z,18.49
2023-03-20T11:22:59.944Z,18.63
2023-03-20T11:24:01.961Z,18.71
2023-03-20T11:25:05.452Z,18.70
2023-03-20T11:26:12.011Z,18.65
2023-03-20T11:27:17.684Z,18.56
2023-03-20T11:28:31.366Z,18.52
2023-03-20T11:29:35.959Z,18.54
2023-03-20T11:30:45.946Z,18.57
2023-03-20T11:32:08.494Z,18.58
2023-03-20T11:33:10.691Z,18.72
2023-03-20T11:34:15.421Z,18.77
2023-03-20T11:35:25.990Z,18.74
2023-03-20T11:36:30.565Z,18.71
2023-03-20T11:37:35.943Z,18.74
2023-03-20T11:38:44.102Z,18.77
2023-03-20T11:40:25.672Z,18.81
2023-03-20T11:41:28.841Z,18.95
2023-03-20T11:42:31.056Z,19.01
2023-03-20T11:43:38.420Z,19.03
2023-03-20T11:44:41.564Z,18.95
2023-03-20T11:45:50.249Z,18.88
2023-03-20T11:47:04.697Z,18.94
2023-03-20T11:48:14.664Z,19.12
2023-03-20T11:49:21.541Z,19.26
2023-03-20T11:50:26.525Z,19.28
2023-03-20T11:51:28.376Z,19.32
2023-03-20T11:52:37.195Z,19.36
2023-03-20T11:54:00.815Z,19.31
2023-03-20T11:55:24.856Z,19.31
2023-03-20T11:56:29.003Z,19.46
2023-03-20T11:57:42.066Z,19.54
2023-03-20T11:59:10.451Z,19.62
2023-03-20T12:00:11.978Z,19.62
2023-03-20T12:01:13.963Z,19.51
2023-03-20T12:02:22.709Z,19.50
2023-03-20T12:03:40.396Z,19.45
2023-03-20T12:04:43.013Z,19.46
2023-03-20T12:05:44.588Z,19.51
2023-03-20T12:06:56.127Z,19.49
2023-03-20T12:08:03.708Z,19.48
2023-03-20T12:09:12.738Z,19.54
2023-03-20T12:10:16.000Z,19.67
2023-03-20T12:11:29.914Z,19.75
2023-03-20T12:12:43.585Z,19.74
2023-03-20T12:13:48.833Z,19.69
2023-03-20T12:15:00.993Z,19.67
2023-03-20T12:16:12.311Z,19.74
2023-03-20T12:17:35.235Z,19.87
2023-03-20T12:18:43.526Z,19.95
2023-03-20T12:19:48.071Z,20.04
2023-03-20T12:21:25.137Z,20.00
2023-03-20T12:22:37.942Z,19.97
2023-03-20T12:24:04.579Z,20.00
2023-03-20T12:25:18.660Z,19.95
2023-03-20T12:26:33.984Z,19.95
2023-03-20T12:27:48.730Z,19.91
2023-03-20T12:28:53.078Z,19.85
2023-03-20T12:30:17.010Z,19.89
2023-03-20T12:31:45.692Z,19.95
2023-03-20T12:33:03.560Z,19.96
2023-03-20T12:34:29.752Z,20.13
2023-03-20T12:35:36.188Z,20.15
2023-03-20T12:36:41.534Z,20.13
2023-03-20T12:37:43.786Z,20.18
2023-03-20T12:38:46.221Z,20.27
2023-03-20T12:40:00.021Z,20.32
2023-03-20T12:41:12.407Z,20.40
2023-03-20T12:42:16.820Z,20.47
2023-03-20T12:43:40.238Z,20.51
2023-03-20T12:44:50.196Z,20.52
2023-03-20T12:46:14.441Z,20.50
2023-03-20T12:47:40.603Z,20.58
2023-03-20T12:49:09.271Z,20.68
2023-03-20T12:50:28.808Z,20.67
2023-03-20T12:51:49.945Z,20.68
2023-03-20T12:53:14.284Z,20.79
2023-03-20T12:54:21.377Z,20.84
2023-03-20T12:55:41.424Z,20.97
2023-03-20T12:56:55.067Z,20.96
2023-03-20T12:58:11.849Z,20.85
2023-03-20T12:59:28.366Z,21.00
2023-03-20T13:00:39.039Z,20.88
2023-03-20T13:01:58.384Z,20.75
2023-03-20T13:03:11.606Z,20.90
2023-03-20T13:04:31.410Z,20.90
2023-03-20T13:05:45.442Z,20.96
2023-03-20T13:07:07.635Z,21.05
2023-03-20T13:08:32.597Z,21.00
2023-03-20T13:10:01.572Z,21.09
2023-03-20T13:11:14.019Z,21.15
2023-03-20T13:12:34.317Z,21.11
2023-03-20T13:13:54.275Z,21.08
2023-03-20T13:15:21.667Z,21.19
2023-03-20T13:16:44.446Z,21.06
2023-03-20T13:17:52.164Z,21.00
2023-03-20T13:19:12.938Z,20.99
2023-03-20T13:20:44.800Z,20.99
2023-03-20T13:22:02.117Z,20.95
2023-03-20T13:23:18.953Z,20.90
2023-03-20T13:24:32.830Z,20.95
2023-03-20T13:25:45.817Z,21.08
2023-03-20T13:27:21.499Z,21.13
2023-03-20T13:28:44.744Z,21.15
2023-03-20T13:29:52.474Z,21.14
2023-03-20T13:31:01.856Z,21.14
2023-03-20T13:32:41.546Z,21.14
2023-03-20T13:33:52.386Z,21.07
2023-03-20T13:35:23.496Z,21.15
2023-03-20T13:36:43.204Z,21.14
2023-03-20T13:37:59.333Z,21.07
2023-03-20T13:39:10.660Z,21.06
2023-03-20T13:40:26.484Z,21.08
2023-03-20T13:41:28.585Z,21.14
2023-03-20T13:42:36.943Z,21.11
2023-03-20T13:43:46.314Z,21.12
2023-03-20T13:44:51.453Z,21.13
2023-03-20T13:46:11.204Z,21.15
2023-03-20T13:47:18.931Z,21.23
2023-03-20T13:48:37.100Z,21.23
2023-03-20T13:49:49.374Z,21.23
2023-03-20T13:51:22.239Z,21.21
2023-03-20T13:52:29.141Z,21.19
2023-03-20T13:53:50.310Z,21.15
2023-03-20T13:55:23.548Z,21.18
2023-03-20T13:56:31.182Z,21.18
2023-03-20T13:57:46.109Z,21.20
2023-03-20T13:59:06.183Z,21.24
2023-03-20T14:00:26.576Z,21.28
2023-03-20T14:01:58.215Z,21.29
2023-03-20T14:03:29.409Z,21.32
2023-03-20T14:04:32.152Z,21.37
2023-03-20T14:05:39.253Z,21.30
2023-03-20T14:06:54.790Z,21.35
2023-03-20T14:07:58.198Z,21.27
2023-03-20T14:09:00.325Z,21.26
2023-03-20T14:10:33.387Z,21.25
2023-03-20T14:11:38.343Z,21.27
2023-03-20T14:12:39.952Z,21.25
2023-03-20T14:13:50.432Z,21.22
2023-03-20T14:15:00.850Z,21.24
2023-03-20T14:16:09.744Z,21.23
2023-03-20T14:17:19.136Z,21.35
2023-03-20T14:18:23.569Z,21.34
2023-03-20T14:19:25.629Z,21.25
2023-03-20T14:20:35.564Z,21.15
2023-03-20T14:21:37.468Z,21.13
2023-03-20T14:22:43.428Z,21.26
2023-03-20T14:23:50.730Z,21.30
2023-03-20T14:24:57.434Z,21.33
2023-03-20T14:25:59.686Z,21.29
2023-03-20T14:27:01.842Z,21.27
2023-03-20T14:28:28.543Z,21.25
2023-03-20T14:29:30.199Z,21.24
2023-03-20T14:30:31.659Z,21.23
2023-03-20T14:31:38.014Z,21.21
2023-03-20T14:32:53.174Z,21.19
2023-03-20T14:34:13.247Z,21.15
2023-03-20T14:35:26.361Z,21.14
2023-03-20T14:36:41.588Z,21.14
2023-03-20T14:37:55.390Z,21.13
2023-03-20T14:39:15.559Z,21.09
2023-03-20T14:40:20.817Z,21.13
2023-03-20T14:41:31.642Z,21.12